createdAt,value
2019-05-30T00:01:56.244Z,99.00
2019-05-30T00:04:24.765Z,99.77
2019-05-30T00:06:54.301Z,100.00
2019-05-30T00:09:22.804Z,100.00
2019-05-30T00:11:51.193Z,100.00
2019-05-30T00:14:19.591Z,100.00
2019-05-30T00:16:47.992Z,100.00
2019-05-30T00:19:16.391Z,100.00
2019-05-30T00:21:44.798Z,100.00
2019-05-30T00:24:13.270Z,99.43
2019-05-30T00:26:41.928Z,99.96
2019-05-30T00:29:10.339Z,100.00
2019-05-30T00:31:38.733Z,100.00
2019-05-30T00:34:07.505Z,100.00
2019-05-30T00:36:35.992Z,99.70
2019-05-30T00:39:06.687Z,99.78
2019-05-30T00:41:35.116Z,99.29
2019-05-30T00:44:04.363Z,99.17
2019-05-30T00:46:32.826Z,98.51
2019-05-30T00:49:02.426Z,97.89
2019-05-30T00:51:30.878Z,98.30
2019-05-30T00:54:00.585Z,98.30
2019-05-30T00:56:29.318Z,98.78
2019-05-30T00:58:58.649Z,98.94
2019-05-30T01:01:27.184Z,98.51
2019-05-30T01:03:56.611Z,99.10
2019-05-30T01:06:25.064Z,99.05
2019-05-30T01:08:53.477Z,98.51
2019-05-30T01:11:21.958Z,98.99
2019-05-30T01:13:50.540Z,99.09
2019-05-30T01:16:19.036Z,99.30
2019-05-30T01:18:47.889Z,99.15
2019-05-30T01:21:16.476Z,98.92
2019-05-30T01:23:44.865Z,98.68
2019-05-30T01:26:13.692Z,99.46
2019-05-30T01:28:42.146Z,99.46
2019-05-30T01:31:11.662Z,99.93
2019-05-30T01:33:40.192Z,99.94
2019-05-30T01:36:08.681Z,99.94
2019-05-30T01:38:37.114Z,100.00
2019-05-30T01:41:05.934Z,100.00
2019-05-30T01:43:34.441Z,100.00
2019-05-30T01:46:04.138Z,100.00
2019-05-30T01:48:32.813Z,100.00
2019-05-30T01:51:02.383Z,100.00
2019-05-30T01:53:30.808Z,100.00
2019-05-30T01:56:00.554Z,100.00
2019-05-30T01:58:29.109Z,100.00
2019-05-30T02:00:58.794Z,100.00
2019-05-30T02:03:27.378Z,100.00
2019-05-30T02:05:56.025Z,100.00
2019-05-30T02:08:24.454Z,100.00
2019-05-30T02:10:52.943Z,100.00
2019-05-30T02:13:21.402Z,100.00
2019-05-30T02:15:50.229Z,99.43
2019-05-30T02:18:18.651Z,100.00
2019-05-30T02:20:47.040Z,99.81
2019-05-30T02:23:15.519Z,99.48
2019-05-30T02:25:44.003Z,100.00
2019-05-30T02:28:12.433Z,100.00
2019-05-30T02:30:40.998Z,100.00
2019-05-30T02:33:12.315Z,100.00
2019-05-30T02:35:40.217Z,100.00
2019-05-30T02:38:10.016Z,100.00
2019-05-30T02:40:38.796Z,100.00
2019-05-30T02:43:07.733Z,100.00
2019-05-30T02:45:37.366Z,100.00
2019-05-30T02:48:07.335Z,100.00
2019-05-30T02:50:35.883Z,100.00
2019-05-30T02:53:05.985Z,100.00
2019-05-30T02:55:34.541Z,100.00
2019-05-30T02:58:03.759Z,100.00
2019-05-30T03:00:35.323Z,100.00
2019-05-30T03:03:06.180Z,100.00
2019-05-30T03:05:34.660Z,100.00
2019-05-30T03:08:04.940Z,100.00
2019-05-30T03:10:33.607Z,100.00
2019-05-30T03:13:03.894Z,100.00
2019-05-30T03:15:33.519Z,100.00
2019-05-30T03:18:02.260Z,100.00
2019-05-30T03:20:31.363Z,100.00
2019-05-30T03:23:00.136Z,100.00
2019-05-30T03:28:34.306Z,100.00
2019-05-30T03:31:10.418Z,100.00
2019-05-30T03:33:41.797Z,100.00
2019-05-30T03:36:14.369Z,100.00
2019-05-30T03:38:36.044Z,100.00
2019-05-30T03:41:06.755Z,100.00
2019-05-30T03:43:34.893Z,100.00
2019-05-30T03:46:06.113Z,100.00
2019-05-30T03:48:35.900Z,100.00
2019-05-30T03:51:09.361Z,100.00
2019-05-30T03:53:37.263Z,100.00
2019-05-30T03:56:09.896Z,100.00
2019-05-30T03:58:50.996Z,100.00
2019-05-30T04:01:37.522Z,100.00
2019-05-30T04:04:19.168Z,100.00
2019-05-30T04:06:50.935Z,100.00
2019-05-30T04:09:24.651Z,100.00
2019-05-30T04:12:12.710Z,100.00
2019-05-30T04:14:44.535Z,100.00
2019-05-30T04:17:15.197Z,100.00
2019-05-30T04:19:43.082Z,100.00
2019-05-30T04:22:13.375Z,100.00
2019-05-30T04:24:41.825Z,100.00
2019-05-30T04:27:11.945Z,100.00
2019-05-30T04:29:40.368Z,100.00
2019-05-30T04:32:10.240Z,100.00
2019-05-30T04:34:38.857Z,100.00
2019-05-30T04:37:08.272Z,100.00
2019-05-30T04:39:36.740Z,100.00
2019-05-30T04:42:05.275Z,100.00
2019-05-30T04:44:33.679Z,100.00
2019-05-30T04:47:02.093Z,100.00
2019-05-30T04:49:30.505Z,99.51
2019-05-30T04:51:58.928Z,99.08
2019-05-30T04:54:27.347Z,99.18
2019-05-30T04:56:55.819Z,99.21
2019-05-30T04:59:24.210Z,98.94
2019-05-30T05:01:52.667Z,98.94
2019-05-30T05:04:21.624Z,98.61
2019-05-30T05:06:50.383Z,97.98
2019-05-30T05:09:20.303Z,97.98
2019-05-30T05:11:48.903Z,97.41
2019-05-30T05:14:18.456Z,96.95
2019-05-30T05:16:46.984Z,96.57
2019-05-30T05:19:17.065Z,95.69
2019-05-30T05:21:45.703Z,94.68
2019-05-30T05:24:15.431Z,93.97
2019-05-30T05:26:43.889Z,93.48
2019-05-30T05:29:12.336Z,93.03
2019-05-30T05:31:40.757Z,92.87
2019-05-30T05:34:09.256Z,92.55
2019-05-30T05:36:37.670Z,92.56
2019-05-30T05:39:07.843Z,92.65
2019-05-30T05:41:36.307Z,91.91
2019-05-30T05:44:04.884Z,91.91
2019-05-30T05:46:33.280Z,90.86
2019-05-30T05:49:01.737Z,91.53
2019-05-30T05:51:30.154Z,90.14
2019-05-30T05:53:58.566Z,90.17
2019-05-30T05:56:26.985Z,89.52
2019-05-30T05:58:55.427Z,89.03
2019-05-30T06:01:25.316Z,88.96
2019-05-30T06:03:53.829Z,88.19
2019-05-30T06:06:23.325Z,87.18
2019-05-30T06:08:51.852Z,85.84
2019-05-30T06:11:20.541Z,84.78
2019-05-30T06:13:48.991Z,85.10
2019-05-30T06:16:17.775Z,84.57
2019-05-30T06:18:46.214Z,84.41
2019-05-30T06:21:14.645Z,84.71
2019-05-30T06:23:45.550Z,84.37
2019-05-30T06:26:13.195Z,82.66
2019-05-30T06:28:41.633Z,82.59
2019-05-30T06:31:10.050Z,82.70
2019-05-30T06:33:38.446Z,81.65
2019-05-30T06:36:06.949Z,80.35
2019-05-30T06:38:35.497Z,79.86
2019-05-30T06:41:04.937Z,80.37
2019-05-30T06:43:33.412Z,79.87
2019-05-30T06:46:01.883Z,78.53
2019-05-30T06:48:30.893Z,77.25
2019-05-30T06:50:59.604Z,76.84
2019-05-30T06:53:29.254Z,75.58
2019-05-30T06:55:57.975Z,74.82
2019-05-30T06:58:41.573Z,74.66
2019-05-30T07:00:56.553Z,72.26
2019-05-30T07:03:26.262Z,71.31
2019-05-30T07:05:55.575Z,70.37
2019-05-30T07:08:24.710Z,70.03
2019-05-30T07:10:53.234Z,68.62
2019-05-30T07:13:23.102Z,67.69
2019-05-30T07:15:51.665Z,66.46
2019-05-30T07:18:20.054Z,66.68
2019-05-30T07:20:48.614Z,63.14
2019-05-30T07:23:17.370Z,62.82
2019-05-30T07:25:45.921Z,61.50
2019-05-30T07:28:14.442Z,61.72
2019-05-30T07:30:42.953Z,62.59
2019-05-30T07:33:11.478Z,61.59
2019-05-30T07:35:41.819Z,60.45
2019-05-30T07:38:10.955Z,60.14
2019-05-30T07:40:39.562Z,59.74
2019-05-30T07:43:08.094Z,59.49
2019-05-30T07:45:36.607Z,59.44
2019-05-30T07:48:05.444Z,59.32
2019-05-30T07:50:34.570Z,59.46
2019-05-30T07:53:03.175Z,60.88
2019-05-30T07:55:33.043Z,59.71
2019-05-30T07:58:02.622Z,58.66
2019-05-30T08:00:31.464Z,57.14
2019-05-30T08:03:00.151Z,56.73
2019-05-30T08:05:29.015Z,56.69
2019-05-30T08:07:57.474Z,57.01
2019-05-30T08:10:27.684Z,57.32
2019-05-30T08:12:56.284Z,57.51
2019-05-30T08:15:24.870Z,56.75
2019-05-30T08:17:53.630Z,55.54
2019-05-30T08:20:22.533Z,55.11
2019-05-30T08:22:51.123Z,55.69
2019-05-30T08:25:19.691Z,54.65
2019-05-30T08:27:48.244Z,52.51
2019-05-30T08:30:18.496Z,51.12
2019-05-30T08:32:47.355Z,51.20
2019-05-30T08:35:16.958Z,49.69
2019-05-30T08:37:45.488Z,51.24
2019-05-30T08:40:14.766Z,53.43
2019-05-30T08:42:43.389Z,51.71
2019-05-30T08:45:12.544Z,50.67
2019-05-30T08:47:41.056Z,49.96
2019-05-30T08:50:10.554Z,50.90
2019-05-30T08:52:40.682Z,50.50
2019-05-30T08:55:10.735Z,51.60
2019-05-30T08:57:40.759Z,51.97
2019-05-30T09:00:11.559Z,50.83
2019-05-30T09:02:40.947Z,49.53
2019-05-30T09:05:09.930Z,49.09
2019-05-30T09:07:38.434Z,48.57
2019-05-30T09:10:09.362Z,47.71
2019-05-30T09:12:38.715Z,47.86
2019-05-30T09:15:11.294Z,46.73
2019-05-30T09:17:40.565Z,45.66
2019-05-30T09:20:11.576Z,44.87
2019-05-30T09:22:41.551Z,43.25
2019-05-30T09:25:11.320Z,40.31
2019-05-30T09:27:40.861Z,41.01
2019-05-30T09:30:12.535Z,43.16
2019-05-30T09:32:41.706Z,44.33
2019-05-30T09:35:11.973Z,44.56
2019-05-30T09:37:41.761Z,44.34
2019-05-30T09:40:11.855Z,44.46
2019-05-30T09:42:41.235Z,43.53
2019-05-30T09:45:11.246Z,43.63
2019-05-30T09:47:41.308Z,44.91
2019-05-30T09:50:10.201Z,44.28
2019-05-30T09:52:42.189Z,44.90
2019-05-30T09:55:13.494Z,44.54
2019-05-30T09:57:43.049Z,44.37
2019-05-30T10:00:17.376Z,42.34
2019-05-30T10:02:46.747Z,43.71
2019-05-30T10:05:17.329Z,42.83
2019-05-30T10:07:47.285Z,41.65
2019-05-30T10:10:17.777Z,40.45
2019-05-30T10:12:46.904Z,41.05
2019-05-30T10:15:16.338Z,40.95
2019-05-30T10:17:46.269Z,39.05
2019-05-30T10:20:15.456Z,39.45
2019-05-30T10:22:44.737Z,38.28
2019-05-30T10:25:14.527Z,37.33
2019-05-30T10:27:43.004Z,39.93
2019-05-30T10:30:12.337Z,38.42
2019-05-30T10:32:40.746Z,37.57
2019-05-30T10:35:09.800Z,36.08
2019-05-30T10:37:38.363Z,35.80
2019-05-30T10:40:08.016Z,35.45
2019-05-30T10:42:36.425Z,36.93
2019-05-30T10:45:09.781Z,35.99
2019-05-30T10:47:38.330Z,35.12
2019-05-30T10:50:08.276Z,36.09
2019-05-30T10:52:36.697Z,37.00
2019-05-30T10:55:10.612Z,38.73
2019-05-30T10:57:39.108Z,36.92
2019-05-30T11:00:15.688Z,37.15
2019-05-30T11:02:47.091Z,38.10
2019-05-30T11:05:15.143Z,38.10
2019-05-30T11:08:01.194Z,35.08
2019-05-30T11:10:42.129Z,36.74
2019-05-30T11:13:13.662Z,36.75
2019-05-30T11:15:42.145Z,34.79
2019-05-30T11:18:10.824Z,34.71
2019-05-30T11:20:39.326Z,34.64
2019-05-30T11:23:07.937Z,34.09
2019-05-30T11:25:36.445Z,33.29
2019-05-30T11:28:06.813Z,33.71
2019-05-30T11:30:35.549Z,32.80
2019-05-30T11:33:04.244Z,33.33
2019-05-30T11:35:33.304Z,33.20
2019-05-30T11:38:01.791Z,32.34
2019-05-30T11:40:30.270Z,31.48
2019-05-30T11:42:59.967Z,31.89
2019-05-30T11:45:28.568Z,32.59
2019-05-30T11:47:58.058Z,32.91
2019-05-30T11:50:27.180Z,32.29
2019-05-30T11:52:55.895Z,32.29
2019-05-30T11:55:24.275Z,31.42
2019-05-30T11:57:54.540Z,30.63
2019-05-30T12:00:23.494Z,31.69
2019-05-30T12:02:52.229Z,31.57
2019-05-30T12:05:21.580Z,30.86
2019-05-30T12:07:50.693Z,30.01
2019-05-30T12:10:19.925Z,29.88
2019-05-30T12:12:48.319Z,30.33
2019-05-30T12:15:17.350Z,29.77
2019-05-30T12:17:45.908Z,31.82
2019-05-30T12:20:14.767Z,31.04
2019-05-30T12:22:43.240Z,30.21
2019-05-30T12:25:12.300Z,30.75
2019-05-30T12:27:40.774Z,32.35
2019-05-30T12:30:09.842Z,31.49
2019-05-30T12:32:38.234Z,31.61
2019-05-30T12:35:08.899Z,31.45
2019-05-30T12:37:53.631Z,31.10
2019-05-30T12:40:10.073Z,30.47
2019-05-30T12:42:39.709Z,30.73
2019-05-30T12:45:09.316Z,31.61
2019-05-30T12:47:37.721Z,29.21
2019-05-30T12:50:08.377Z,28.84
2019-05-30T12:52:36.780Z,29.80
2019-05-30T12:55:07.227Z,29.39
2019-05-30T12:57:35.747Z,28.69
2019-05-30T13:00:17.446Z,27.60
2019-05-30T13:02:40.050Z,26.66
2019-05-30T13:05:09.097Z,27.04
2019-05-30T13:07:37.565Z,27.50
2019-05-30T13:10:07.676Z,27.49
2019-05-30T13:12:36.112Z,26.90
2019-05-30T13:15:06.156Z,28.98
2019-05-30T13:17:34.589Z,29.48
2019-05-30T13:20:04.715Z,30.67
2019-05-30T13:22:33.138Z,30.45
2019-05-30T13:25:01.939Z,31.06
2019-05-30T13:27:30.337Z,30.29
2019-05-30T13:29:59.915Z,30.08
2019-05-30T13:32:28.520Z,30.06
2019-05-30T13:34:56.917Z,30.10
2019-05-30T13:37:25.456Z,30.10
2019-05-30T13:39:53.936Z,29.59
2019-05-30T13:42:22.360Z,29.50
2019-05-30T13:44:50.774Z,30.19
2019-05-30T13:47:19.272Z,30.93
2019-05-30T13:49:47.686Z,31.07
2019-05-30T13:52:16.087Z,30.83
2019-05-30T13:54:44.527Z,31.65
2019-05-30T13:57:12.917Z,31.35
2019-05-30T13:59:41.336Z,31.48
2019-05-30T14:02:10.268Z,31.33
2019-05-30T14:04:38.967Z,31.74
2019-05-30T14:07:08.460Z,32.29
2019-05-30T14:09:36.852Z,32.60
2019-05-30T14:12:06.610Z,33.19
2019-05-30T14:14:35.154Z,32.13
2019-05-30T14:17:04.791Z,31.58
2019-05-30T14:19:33.227Z,32.03
2019-05-30T14:22:01.626Z,31.50
2019-05-30T14:24:30.049Z,31.48
2019-05-30T14:26:58.457Z,30.93
2019-05-30T14:29:28.489Z,29.49
2019-05-30T14:31:56.900Z,29.21
2019-05-30T14:34:25.493Z,28.60
2019-05-30T14:36:53.884Z,28.24
2019-05-30T14:39:25.264Z,27.00
2019-05-30T14:41:53.661Z,28.65
2019-05-30T14:44:22.119Z,29.08
2019-05-30T14:46:50.524Z,28.40
2019-05-30T14:49:18.954Z,28.77
2019-05-30T14:51:47.420Z,27.40
2019-05-30T14:54:17.400Z,29.45
2019-05-30T14:56:45.850Z,28.62
2019-05-30T14:59:14.463Z,28.64
2019-05-30T15:01:42.879Z,28.29
2019-05-30T15:04:11.391Z,29.42
2019-05-30T15:06:39.849Z,29.65
2019-05-30T15:09:19.524Z,30.79
2019-05-30T15:11:38.409Z,29.97
2019-05-30T15:14:06.959Z,29.95
2019-05-30T15:16:35.499Z,30.64
2019-05-30T15:19:04.007Z,31.27
2019-05-30T15:21:32.417Z,31.73
2019-05-30T15:24:00.828Z,31.33
2019-05-30T15:26:29.245Z,32.88
2019-05-30T15:28:57.644Z,31.21
2019-05-30T15:31:26.067Z,31.43
2019-05-30T15:33:54.491Z,31.00
2019-05-30T15:36:22.961Z,32.10
2019-05-30T15:38:51.365Z,32.39
2019-05-30T15:41:19.798Z,32.95
2019-05-30T15:43:48.179Z,32.69
2019-05-30T15:46:16.652Z,34.06
2019-05-30T15:48:45.067Z,33.87
2019-05-30T15:51:14.404Z,34.13
2019-05-30T15:53:43.129Z,35.21
2019-05-30T15:56:11.549Z,35.43
2019-05-30T15:58:40.032Z,35.71
2019-05-30T16:01:09.751Z,35.29
2019-05-30T16:03:38.284Z,35.44
2019-05-30T16:06:06.785Z,35.33
2019-05-30T16:08:35.201Z,35.66
2019-05-30T16:11:03.630Z,35.33
2019-05-30T16:13:32.058Z,35.29
2019-05-30T16:16:00.493Z,35.57
2019-05-30T16:18:28.931Z,35.79
2019-05-30T16:20:57.431Z,36.63
2019-05-30T16:23:25.851Z,36.87
2019-05-30T16:25:54.323Z,37.14
2019-05-30T16:28:22.762Z,38.25
2019-05-30T16:30:51.176Z,38.22
2019-05-30T16:33:20.066Z,38.50
2019-05-30T16:35:48.566Z,37.38
2019-05-30T16:38:17.994Z,37.62
2019-05-30T16:40:46.637Z,38.19
2019-05-30T16:43:16.057Z,38.95
2019-05-30T16:45:44.637Z,38.75
2019-05-30T16:48:14.283Z,38.83
2019-05-30T16:50:42.861Z,38.89
2019-05-30T16:53:11.290Z,39.59
2019-05-30T16:55:39.707Z,40.03
2019-05-30T16:58:08.187Z,39.41
2019-05-30T17:00:36.615Z,39.91
2019-05-30T17:03:05.504Z,39.74
2019-05-30T17:05:34.604Z,39.40
2019-05-30T17:08:03.181Z,39.75
2019-05-30T17:10:33.238Z,41.04
2019-05-30T17:13:01.962Z,40.44
2019-05-30T17:15:30.437Z,41.14
2019-05-30T17:17:58.850Z,39.98
2019-05-30T17:20:27.264Z,41.22
2019-05-30T17:22:55.816Z,40.45
2019-05-30T17:25:25.179Z,40.57
2019-05-30T17:27:54.852Z,40.69
2019-05-30T17:30:25.714Z,41.24
2019-05-30T17:32:54.186Z,41.14
2019-05-30T17:35:22.630Z,41.54
2019-05-30T17:37:51.170Z,41.72
2019-05-30T17:40:20.605Z,41.96
2019-05-30T17:42:49.119Z,42.18
2019-05-30T17:45:18.921Z,42.20
2019-05-30T17:47:47.403Z,43.23
2019-05-30T17:50:16.187Z,43.53
2019-05-30T17:52:44.605Z,44.36
2019-05-30T17:55:13.498Z,44.87
2019-05-30T17:57:41.919Z,46.10
2019-05-30T18:00:15.181Z,45.00
2019-05-30T18:02:43.694Z,45.14
2019-05-30T18:05:12.871Z,45.36
2019-05-30T18:07:41.275Z,45.93
2019-05-30T18:10:10.779Z,46.60
2019-05-30T18:12:39.329Z,47.10
2019-05-30T18:15:10.272Z,47.32
2019-05-30T18:17:38.848Z,47.69
2019-05-30T18:20:08.825Z,47.81
2019-05-30T18:22:37.366Z,47.77
2019-05-30T18:25:07.909Z,47.61
2019-05-30T18:27:36.381Z,48.10
2019-05-30T18:30:09.889Z,49.31
2019-05-30T18:32:38.358Z,49.11
2019-05-30T18:35:08.602Z,49.54
2019-05-30T18:37:38.018Z,50.33
2019-05-30T18:40:07.157Z,52.27
2019-05-30T18:42:36.298Z,52.27
2019-05-30T18:45:06.997Z,52.53
2019-05-30T18:47:35.462Z,53.17
2019-05-30T18:50:04.629Z,53.49
2019-05-30T18:52:33.045Z,54.12
2019-05-30T18:55:05.065Z,54.77
2019-05-30T18:57:32.836Z,55.87
2019-05-30T19:00:01.800Z,56.46
2019-05-30T19:02:31.335Z,56.99
2019-05-30T19:04:59.752Z,57.98
2019-05-30T19:07:28.763Z,58.63
2019-05-30T19:09:57.261Z,59.83
2019-05-30T19:12:25.957Z,60.90
2019-05-30T19:14:54.465Z,61.86
2019-05-30T19:17:22.890Z,62.39
2019-05-30T19:19:51.456Z,62.90
2019-05-30T19:22:19.970Z,63.30
2019-05-30T19:24:48.378Z,63.46
2019-05-30T19:27:16.970Z,63.78
2019-05-30T19:29:45.371Z,64.25
2019-05-30T19:32:13.852Z,64.86
2019-05-30T19:34:42.327Z,65.24
2019-05-30T19:37:10.767Z,65.98
2019-05-30T19:39:39.253Z,66.24
2019-05-30T19:42:07.834Z,66.19
2019-05-30T19:44:39.606Z,66.68
2019-05-30T19:47:06.489Z,66.51
2019-05-30T19:49:34.924Z,66.77
2019-05-30T19:52:03.378Z,66.80
2019-05-30T19:54:33.019Z,66.56
2019-05-30T19:57:01.521Z,67.03
2019-05-30T19:59:30.012Z,67.97
2019-05-30T20:03:46.644Z,68.99
2019-05-30T20:06:10.624Z,68.93
2019-05-30T20:08:52.851Z,69.02
2019-05-30T20:11:09.294Z,69.14
2019-05-30T20:13:37.713Z,69.15
2019-05-30T20:16:06.123Z,69.11
2019-05-30T20:18:35.537Z,69.30
2019-05-30T20:21:04.130Z,69.63
2019-05-30T20:23:46.798Z,69.63
2019-05-30T20:26:02.792Z,69.99
2019-05-30T20:28:31.262Z,70.18
2019-05-30T20:30:59.660Z,70.75
2019-05-30T20:33:28.058Z,71.46
2019-05-30T20:35:56.474Z,71.79
2019-05-30T20:38:24.874Z,72.05
2019-05-30T20:40:53.290Z,71.27
2019-05-30T20:43:21.805Z,71.74
2019-05-30T20:45:50.216Z,72.31
2019-05-30T20:48:18.741Z,72.27
2019-05-30T20:50:47.463Z,72.92
2019-05-30T20:53:16.046Z,73.01
2019-05-30T20:55:44.536Z,72.55
2019-05-30T20:58:12.959Z,72.37
2019-05-30T21:00:42.219Z,72.40
2019-05-30T21:03:13.692Z,73.14
2019-05-30T21:05:44.078Z,73.22
2019-05-30T21:08:13.481Z,73.86
2019-05-30T21:10:43.533Z,74.89
2019-05-30T21:13:12.027Z,75.52
2019-05-30T21:15:41.657Z,75.91
2019-05-30T21:18:10.369Z,76.00
2019-05-30T21:20:39.955Z,76.30
2019-05-30T21:23:08.515Z,76.12
2019-05-30T21:25:37.481Z,76.41
2019-05-30T21:28:07.158Z,76.79
2019-05-30T21:30:36.782Z,77.21
2019-05-30T21:33:05.289Z,77.73
2019-05-30T21:35:33.826Z,78.27
2019-05-30T21:38:02.259Z,78.66
2019-05-30T21:40:30.730Z,77.88
2019-05-30T21:43:06.304Z,77.50
2019-05-30T21:45:30.808Z,77.89
2019-05-30T21:47:59.219Z,78.28
2019-05-30T21:50:27.625Z,78.08
2019-05-30T21:52:58.907Z,78.29
2019-05-30T21:55:27.313Z,78.52
2019-05-30T21:57:55.722Z,78.46
2019-05-30T22:00:46.715Z,78.62
2019-05-30T22:03:15.194Z,78.67
2019-05-30T22:05:44.741Z,78.85
2019-05-30T22:08:13.842Z,78.80
2019-05-30T22:10:43.266Z,79.00
2019-05-30T22:13:11.716Z,79.33
2019-05-30T22:15:41.587Z,79.40
2019-05-30T22:18:10.124Z,79.58
2019-05-30T22:20:38.519Z,79.81
2019-05-30T22:23:06.954Z,80.25
2019-05-30T22:25:35.360Z,80.42
2019-05-30T22:28:03.847Z,80.76
2019-05-30T22:30:32.292Z,80.85
2019-05-30T22:33:00.720Z,81.20
2019-05-30T22:35:29.175Z,81.41
2019-05-30T22:37:57.616Z,81.60
2019-05-30T22:40:26.023Z,81.81
2019-05-30T22:42:54.478Z,82.02
2019-05-30T22:45:22.942Z,82.05
2019-05-30T22:47:52.483Z,82.71
2019-05-30T22:50:20.851Z,82.75
2019-05-30T22:52:49.244Z,83.25
2019-05-30T22:55:17.673Z,83.50
2019-05-30T22:57:46.443Z,83.52
2019-05-30T23:00:15.237Z,84.12
2019-05-30T23:02:43.709Z,84.56
2019-05-30T23:05:12.143Z,85.13
2019-05-30T23:07:40.570Z,85.10
2019-05-30T23:10:09.494Z,84.52
2019-05-30T23:12:37.898Z,84.19
2019-05-30T23:15:07.232Z,84.67
2019-05-30T23:17:35.705Z,85.31
2019-05-30T23:20:06.796Z,85.71
2019-05-30T23:22:35.202Z,85.38
2019-05-30T23:25:05.514Z,85.92
2019-05-30T23:27:34.143Z,86.33
2019-05-30T23:30:02.608Z,86.08
2019-05-30T23:32:31.058Z,85.63
2019-05-30T23:34:59.456Z,85.67
2019-05-30T23:37:27.841Z,86.45
2019-05-30T23:39:56.872Z,86.11
2019-05-30T23:42:25.315Z,86.23
2019-05-30T23:44:53.734Z,86.79
2019-05-30T23:47:22.199Z,86.89
2019-05-30T23:49:51.731Z,87.01
2019-05-30T23:52:20.262Z,87.43
2019-05-30T23:54:49.949Z,86.74
2019-05-30T23:57:18.391Z,86.86
2019-05-30T23:59:46.830Z,87.26
